Terminal Aerodrome Forecast
Issued by NWS Atlanta, GA

Home | Current Version | Previous Version | Text Only | Print | Product List | Glossary On
Versions: 1 2 3 4 5 6 7 8 9 10 11 12 13 14 15 16 17 18 19 20 21 22 23 24 25 26 27 28 29 30 31 32 33 34
000
FTAK31 PAJN 281905 AAA
TAFAHN
TAF AMD
PAHN 281905Z 2819/2918 07007KT 6SM -RA BKN030 OVC045
     FM282000 07010KT 6SM -RA BKN025 OVC030
     FM290500 09007KT P6SM -SHRA BKN030 OVC040
     FM291400 10010KT P6SM -SHRA BKN035 OVC040
      AMD LTD TO CLD VIS AND WIND=

USA.gov is the U.S. government's official web portal to all federal, state and local government web resources and services.